createdAt,value
2022-09-01T00:02:46.788Z,77.67
2022-09-01T00:05:55.073Z,79.13
2022-09-01T00:09:01.933Z,79.82
2022-09-01T00:12:07.128Z,80.99
2022-09-01T00:15:11.479Z,80.83
2022-09-01T00:18:15.658Z,84.34
2022-09-01T00:21:20.897Z,81.48
2022-09-01T00:24:26.064Z,81.46
2022-09-01T00:27:31.015Z,82.41
2022-09-01T00:30:33.892Z,82.18
2022-09-01T00:33:38.557Z,83.55
2022-09-01T00:36:41.537Z,82.92
2022-09-01T00:39:44.027Z,83.31
2022-09-01T00:42:48.857Z,84.54
2022-09-01T00:45:52.376Z,84.49
2022-09-01T00:49:00.999Z,85.04
2022-09-01T00:52:11.476Z,88.02
2022-09-01T00:55:34.603Z,87.11
2022-09-01T00:58:38.287Z,85.64
2022-09-01T01:01:41.026Z,85.17
2022-09-01T01:04:44.037Z,85.36
2022-09-01T01:07:47.967Z,86.66
2022-09-01T01:10:50.512Z,86.24
2022-09-01T01:13:57.192Z,86.84
2022-09-01T01:17:00.995Z,86.37
2022-09-01T01:20:25.996Z,85.60
2022-09-01T01:23:43.541Z,85.16
2022-09-01T01:26:47.453Z,86.76
2022-09-01T01:29:52.147Z,86.63
2022-09-01T01:32:57.854Z,87.97
2022-09-01T01:36:01.907Z,89.20
2022-09-01T01:39:07.518Z,87.09
2022-09-01T01:42:12.255Z,87.98
2022-09-01T01:45:17.755Z,86.51
2022-09-01T01:48:23.879Z,87.58
2022-09-01T01:51:26.769Z,87.65
2022-09-01T01:54:31.320Z,87.38
2022-09-01T01:57:35.462Z,88.16
2022-09-01T02:00:38.579Z,88.31
2022-09-01T02:03:41.245Z,86.72
2022-09-01T02:06:47.901Z,85.61
2022-09-01T02:09:50.880Z,86.67
2022-09-01T02:12:53.374Z,87.84
2022-09-01T02:15:58.197Z,84.37
2022-09-01T02:19:02.313Z,88.08
2022-09-01T02:22:05.089Z,87.60
2022-09-01T02:25:08.082Z,86.72
2022-09-01T02:28:15.806Z,83.54
2022-09-01T02:31:20.012Z,83.08
2022-09-01T02:34:24.818Z,83.69
2022-09-01T02:37:27.608Z,86.33
2022-09-01T02:40:31.649Z,84.20
2022-09-01T02:43:34.173Z,84.66
2022-09-01T02:46:38.211Z,84.03
2022-09-01T02:49:40.699Z,84.03
2022-09-01T02:52:46.195Z,83.77
2022-09-01T02:55:48.703Z,83.35
2022-09-01T02:58:51.890Z,83.75
2022-09-01T03:01:55.171Z,83.06
2022-09-01T03:04:58.045Z,81.98
2022-09-01T03:08:03.555Z,81.79
2022-09-01T03:11:12.975Z,82.16
2022-09-01T03:14:17.000Z,81.88
2022-09-01T03:17:19.709Z,82.74
2022-09-01T03:20:22.253Z,83.07
2022-09-01T03:23:25.430Z,82.98
2022-09-01T03:26:27.897Z,81.47
2022-09-01T03:29:30.970Z,81.83
2022-09-01T03:32:33.543Z,81.93
2022-09-01T03:35:36.693Z,83.68
2022-09-01T03:38:39.103Z,82.61
2022-09-01T03:41:42.835Z,83.41
2022-09-01T03:44:45.475Z,84.36
2022-09-01T03:47:51.103Z,82.63
2022-09-01T03:50:53.587Z,81.74
2022-09-01T03:53:59.138Z,81.33
2022-09-01T03:57:05.959Z,81.13
2022-09-01T04:00:13.625Z,81.50
2022-09-01T04:03:28.986Z,81.76
2022-09-01T04:06:34.237Z,81.54
2022-09-01T04:09:37.176Z,81.34
2022-09-01T04:12:39.968Z,80.86
2022-09-01T04:15:42.773Z,80.72
2022-09-01T04:18:48.967Z,81.94
2022-09-01T04:21:55.221Z,81.96
2022-09-01T04:24:59.216Z,82.80
2022-09-01T04:28:03.711Z,83.11
2022-09-01T04:31:14.884Z,82.97
2022-09-01T04:34:17.388Z,83.85
2022-09-01T04:37:21.970Z,83.80
2022-09-01T04:40:27.521Z,84.23
2022-09-01T04:43:30.363Z,83.04
2022-09-01T04:46:39.093Z,83.37
2022-09-01T04:49:43.470Z,84.04
2022-09-01T04:52:47.719Z,83.98
2022-09-01T04:55:54.725Z,84.35
2022-09-01T04:58:57.349Z,84.87
2022-09-01T05:02:00.815Z,85.22
2022-09-01T05:05:03.510Z,84.97
2022-09-01T05:08:08.008Z,84.27
2022-09-01T05:11:11.419Z,85.41
2022-09-01T05:14:19.079Z,84.93
2022-09-01T05:17:21.773Z,85.08
2022-09-01T05:20:25.109Z,86.00
2022-09-01T05:23:28.889Z,86.02
2022-09-01T05:26:34.661Z,88.91
2022-09-01T05:29:38.515Z,87.49
2022-09-01T05:32:41.452Z,86.85
2022-09-01T05:35:56.750Z,87.68
2022-09-01T05:39:00.749Z,86.51
2022-09-01T05:42:04.691Z,86.59
2022-09-01T05:45:10.838Z,86.27
2022-09-01T05:48:16.014Z,86.95
2022-09-01T05:51:43.389Z,86.30
2022-09-01T05:54:48.042Z,87.32
2022-09-01T05:57:53.990Z,87.54
2022-09-01T06:00:58.450Z,86.11
2022-09-01T06:04:04.711Z,86.09
2022-09-01T06:07:11.856Z,86.49
2022-09-01T06:10:17.583Z,86.17
2022-09-01T06:13:21.892Z,86.88
2022-09-01T06:16:29.781Z,85.35
2022-09-01T06:19:37.129Z,85.51
2022-09-01T06:22:41.131Z,85.71
2022-09-01T06:25:46.832Z,85.65
2022-09-01T06:28:55.043Z,84.92
2022-09-01T06:31:58.889Z,84.99
2022-09-01T06:35:03.394Z,85.10
2022-09-01T06:38:10.204Z,84.30
2022-09-01T06:41:13.219Z,84.39
2022-09-01T06:44:22.271Z,85.14
2022-09-01T06:47:28.650Z,85.71
2022-09-01T06:53:57.021Z,83.52
2022-09-01T06:58:03.519Z,83.71
2022-09-01T07:00:28.765Z,84.41
2022-09-01T07:03:33.083Z,84.32
2022-09-01T07:10:17.745Z,81.54
2022-09-01T07:13:23.964Z,81.81
2022-09-01T07:16:33.319Z,82.31
2022-09-01T07:19:53.055Z,79.88
2022-09-01T07:23:06.422Z,80.18
2022-09-01T07:26:10.156Z,79.45
2022-09-01T07:29:14.135Z,80.45
2022-09-01T07:36:25.755Z,78.25
2022-09-01T07:45:59.734Z,78.72
2022-09-01T07:49:29.658Z,76.75
2022-09-01T07:52:26.771Z,74.49
2022-09-01T07:55:31.937Z,75.82
2022-09-01T07:58:38.317Z,75.86
2022-09-01T08:01:42.841Z,77.48
2022-09-01T08:04:46.430Z,76.75
2022-09-01T08:07:52.581Z,77.12
2022-09-01T08:11:04.329Z,78.41
2022-09-01T08:14:07.823Z,74.07
2022-09-01T08:17:34.375Z,75.17
2022-09-01T08:20:37.731Z,74.03
2022-09-01T08:23:44.253Z,73.72
2022-09-01T08:26:48.828Z,73.05
2022-09-01T08:29:51.862Z,72.89
2022-09-01T08:32:54.911Z,73.83
2022-09-01T08:35:57.771Z,74.33
2022-09-01T08:39:01.272Z,72.83
2022-09-01T08:42:10.119Z,74.61
2022-09-01T08:45:33.192Z,74.47
2022-09-01T08:52:17.437Z,66.83
2022-09-01T08:55:27.394Z,66.22
2022-09-01T08:58:32.582Z,65.52
2022-09-01T09:02:01.848Z,67.81
2022-09-01T09:05:27.970Z,67.22
2022-09-01T09:08:57.990Z,69.53
2022-09-01T09:12:22.589Z,64.12
2022-09-01T09:15:33.912Z,67.37
2022-09-01T09:18:54.925Z,69.26
2022-09-01T09:22:01.218Z,69.70
2022-09-01T09:25:08.297Z,66.47
2022-09-01T09:28:11.182Z,66.08
2022-09-01T09:31:51.490Z,68.12
2022-09-01T09:34:54.903Z,69.24
2022-09-01T09:38:21.556Z,65.63
2022-09-01T09:41:27.292Z,64.32
2022-09-01T09:44:32.818Z,65.28
2022-09-01T09:47:45.340Z,65.01
2022-09-01T09:50:48.067Z,64.65
2022-09-01T09:53:54.277Z,64.57
2022-09-01T09:57:08.994Z,64.28
2022-09-01T10:00:32.635Z,61.42
2022-09-01T10:03:42.456Z,62.24
2022-09-01T10:06:46.851Z,56.76
2022-09-01T10:09:51.208Z,59.20
2022-09-01T10:12:55.398Z,59.25
2022-09-01T10:16:05.610Z,57.46
2022-09-01T10:19:13.797Z,59.36
2022-09-01T10:22:20.353Z,55.30
2022-09-01T10:25:29.222Z,56.78
2022-09-01T10:28:33.880Z,53.63
2022-09-01T10:31:37.257Z,53.84
2022-09-01T10:34:42.107Z,53.61
2022-09-01T10:37:46.015Z,53.41
2022-09-01T10:41:07.185Z,55.40
2022-09-01T10:44:19.342Z,53.23
2022-09-01T10:47:33.905Z,52.14
2022-09-01T10:50:36.775Z,52.41
2022-09-01T10:53:42.405Z,54.30
2022-09-01T10:56:52.358Z,50.32
2022-09-01T10:59:58.100Z,48.47
2022-09-01T11:10:52.927Z,49.66
2022-09-01T11:13:58.944Z,50.17
2022-09-01T11:17:29.367Z,45.03
2022-09-01T11:20:36.483Z,44.79
2022-09-01T11:23:39.387Z,45.72
2022-09-01T11:26:47.457Z,44.34
2022-09-01T11:30:07.615Z,41.96
2022-09-01T11:33:16.275Z,43.10
2022-09-01T11:36:19.725Z,42.58
2022-09-01T11:39:31.266Z,44.64
2022-09-01T11:42:45.768Z,41.91
2022-09-01T11:46:06.977Z,41.48
2022-09-01T11:49:24.352Z,40.37
2022-09-01T11:52:30.582Z,41.81
2022-09-01T11:55:36.177Z,41.96
2022-09-01T11:58:39.353Z,42.09
2022-09-01T12:01:41.750Z,40.56
2022-09-01T12:04:44.360Z,40.11
2022-09-01T12:07:47.490Z,40.95
2022-09-01T12:10:50.185Z,37.91
2022-09-01T12:14:10.877Z,39.09
2022-09-01T12:17:20.901Z,41.05
2022-09-01T12:20:31.141Z,38.06
2022-09-01T12:23:40.325Z,37.57
2022-09-01T12:26:44.106Z,38.70
2022-09-01T12:29:50.123Z,38.38
2022-09-01T12:33:22.845Z,37.70
2022-09-01T12:36:24.088Z,37.40
2022-09-01T12:39:33.919Z,37.59
2022-09-01T12:42:41.471Z,36.22
2022-09-01T12:45:47.815Z,35.94
2022-09-01T12:48:50.706Z,37.53
2022-09-01T12:52:26.577Z,36.33
2022-09-01T12:59:36.055Z,37.31
2022-09-01T13:03:18.129Z,36.96
2022-09-01T13:06:20.470Z,35.16
2022-09-01T13:09:23.227Z,35.82
2022-09-01T13:12:25.652Z,35.56
2022-09-01T13:15:28.678Z,35.28
2022-09-01T13:18:31.251Z,35.91
2022-09-01T13:21:36.474Z,36.83
2022-09-01T13:24:40.518Z,37.64
2022-09-01T13:27:44.779Z,34.96
2022-09-01T13:31:28.729Z,34.70
2022-09-01T13:34:23.474Z,36.34
2022-09-01T13:37:26.697Z,36.17
2022-09-01T13:40:29.537Z,33.15
2022-09-01T13:43:32.291Z,34.88
2022-09-01T13:46:35.571Z,31.59
2022-09-01T13:49:42.626Z,33.31
2022-09-01T13:52:55.128Z,32.33
2022-09-01T13:59:00.954Z,32.47
2022-09-01T14:02:04.572Z,33.62
2022-09-01T14:05:07.958Z,32.92
2022-09-01T14:08:11.148Z,32.71
2022-09-01T14:11:19.855Z,33.67
2022-09-01T14:14:22.877Z,33.76
2022-09-01T14:17:26.354Z,33.55
2022-09-01T14:20:36.679Z,33.92
2022-09-01T14:23:39.994Z,32.60
2022-09-01T14:26:42.414Z,33.39
2022-09-01T14:29:54.913Z,33.40
2022-09-01T14:32:59.517Z,33.21
2022-09-01T14:36:03.279Z,33.29
2022-09-01T14:39:05.792Z,33.93
2022-09-01T14:42:11.869Z,34.97
2022-09-01T14:45:18.466Z,33.80
2022-09-01T14:48:21.401Z,34.22
2022-09-01T14:52:10.464Z,34.82
2022-09-01T14:54:50.565Z,33.97
2022-09-01T14:57:54.574Z,34.75
2022-09-01T15:01:03.586Z,31.59
2022-09-01T15:04:10.306Z,33.29
2022-09-01T15:07:13.460Z,31.53
2022-09-01T15:10:24.911Z,31.86
2022-09-01T15:13:28.258Z,31.72
2022-09-01T15:16:30.671Z,33.17
2022-09-01T15:19:33.442Z,32.55
2022-09-01T15:22:35.926Z,32.39
2022-09-01T15:25:38.970Z,32.56
2022-09-01T15:28:41.565Z,33.38
2022-09-01T15:31:44.986Z,33.19
2022-09-01T15:34:47.358Z,31.63
2022-09-01T15:37:52.292Z,33.55
